sensor_id;sensor_type;location;lat;lon;timestamp;P1;durP1;ratioP1;P2;durP2;ratioP2
15383;SDS011;7790;53.022;12.968;2023-12-28T00:01:07;1.60;;;1.10;;
15383;SDS011;7790;53.022;12.968;2023-12-28T00:05:08;1.57;;;1.30;;
15383;SDS011;7790;53.022;12.968;2023-12-28T00:09:09;1.27;;;1.17;;
15383;SDS011;7790;53.022;12.968;2023-12-28T00:13:11;2.23;;;1.23;;
15383;SDS011;7790;53.022;12.968;2023-12-28T00:17:11;1.40;;;0.90;;
15383;SDS011;7790;53.022;12.968;2023-12-28T00:21:12;1.40;;;1.10;;
15383;SDS011;7790;53.022;12.968;2023-12-28T00:25:13;1.27;;;1.17;;
15383;SDS011;7790;53.022;12.968;2023-12-28T00:29:14;1.70;;;1.10;;
15383;SDS011;7790;53.022;12.968;2023-12-28T00:33:15;1.00;;;1.00;;
15383;SDS011;7790;53.022;12.968;2023-12-28T00:37:16;1.63;;;1.17;;
15383;SDS011;7790;53.022;12.968;2023-12-28T00:41:17;1.93;;;1.17;;
15383;SDS011;7790;53.022;12.968;2023-12-28T00:45:18;1.30;;;1.20;;
15383;SDS011;7790;53.022;12.968;2023-12-28T00:49:19;5.33;;;1.40;;
15383;SDS011;7790;53.022;12.968;2023-12-28T00:53:20;6.27;;;1.43;;
15383;SDS011;7790;53.022;12.968;2023-12-28T00:57:20;1.10;;;1.00;;
15383;SDS011;7790;53.022;12.968;2023-12-28T01:01:21;1.87;;;1.27;;
15383;SDS011;7790;53.022;12.968;2023-12-28T01:05:22;1.23;;;1.03;;
15383;SDS011;7790;53.022;12.968;2023-12-28T01:09:26;1.40;;;1.20;;
15383;SDS011;7790;53.022;12.968;2023-12-28T01:13:27;1.27;;;1.10;;
15383;SDS011;7790;53.022;12.968;2023-12-28T01:17:28;1.70;;;1.10;;
15383;SDS011;7790;53.022;12.968;2023-12-28T01:21:29;1.57;;;1.10;;
15383;SDS011;7790;53.022;12.968;2023-12-28T01:25:31;2.50;;;1.27;;
15383;SDS011;7790;53.022;12.968;2023-12-28T01:29:31;1.27;;;1.00;;
15383;SDS011;7790;53.022;12.968;2023-12-28T01:33:34;1.40;;;0.90;;
15383;SDS011;7790;53.022;12.968;2023-12-28T01:37:36;1.80;;;1.17;;
15383;SDS011;7790;53.022;12.968;2023-12-28T01:41:36;1.63;;;1.10;;
15383;SDS011;7790;53.022;12.968;2023-12-28T01:45:37;0.97;;;0.97;;
15383;SDS011;7790;53.022;12.968;2023-12-28T01:49:38;0.90;;;0.90;;
15383;SDS011;7790;53.022;12.968;2023-12-28T01:53:39;0.97;;;0.80;;
15383;SDS011;7790;53.022;12.968;2023-12-28T01:57:41;1.23;;;1.00;;
15383;SDS011;7790;53.022;12.968;2023-12-28T02:01:42;1.27;;;1.10;;
15383;SDS011;7790;53.022;12.968;2023-12-28T02:05:43;2.20;;;1.00;;
15383;SDS011;7790;53.022;12.968;2023-12-28T02:09:45;1.90;;;1.13;;
15383;SDS011;7790;53.022;12.968;2023-12-28T02:13:46;1.23;;;1.07;;
15383;SDS011;7790;53.022;12.968;2023-12-28T02:21:52;1.30;;;1.10;;
15383;SDS011;7790;53.022;12.968;2023-12-28T02:25:54;2.30;;;0.93;;
15383;SDS011;7790;53.022;12.968;2023-12-28T02:29:55;1.63;;;0.93;;
15383;SDS011;7790;53.022;12.968;2023-12-28T02:34:11;1.00;;;1.00;;
15383;SDS011;7790;53.022;12.968;2023-12-28T02:38:16;1.90;;;1.00;;
15383;SDS011;7790;53.022;12.968;2023-12-28T02:42:18;1.40;;;1.00;;
15383;SDS011;7790;53.022;12.968;2023-12-28T02:46:19;1.80;;;1.10;;
15383;SDS011;7790;53.022;12.968;2023-12-28T02:50:22;1.73;;;1.00;;
15383;SDS011;7790;53.022;12.968;2023-12-28T02:54:23;1.53;;;0.90;;
15383;SDS011;7790;53.022;12.968;2023-12-28T02:58:24;0.90;;;0.90;;
15383;SDS011;7790;53.022;12.968;2023-12-28T03:02:24;0.93;;;0.80;;
15383;SDS011;7790;53.022;12.968;2023-12-28T03:06:25;1.63;;;1.00;;
15383;SDS011;7790;53.022;12.968;2023-12-28T03:10:26;1.10;;;1.00;;
15383;SDS011;7790;53.022;12.968;2023-12-28T03:14:27;0.90;;;0.87;;
15383;SDS011;7790;53.022;12.968;2023-12-28T03:18:29;1.00;;;0.90;;
15383;SDS011;7790;53.022;12.968;2023-12-28T03:22:29;1.93;;;0.90;;
15383;SDS011;7790;53.022;12.968;2023-12-28T03:26:30;0.80;;;0.80;;
15383;SDS011;7790;53.022;12.968;2023-12-28T03:30:31;1.13;;;0.80;;
15383;SDS011;7790;53.022;12.968;2023-12-28T03:34:32;1.17;;;0.90;;
15383;SDS011;7790;53.022;12.968;2023-12-28T03:38:34;0.70;;;0.70;;
15383;SDS011;7790;53.022;12.968;2023-12-28T03:42:35;0.97;;;0.90;;
15383;SDS011;7790;53.022;12.968;2023-12-28T03:46:36;0.80;;;0.80;;
15383;SDS011;7790;53.022;12.968;2023-12-28T03:50:37;0.87;;;0.80;;
15383;SDS011;7790;53.022;12.968;2023-12-28T03:54:37;1.13;;;0.90;;
15383;SDS011;7790;53.022;12.968;2023-12-28T03:58:40;0.80;;;0.80;;
15383;SDS011;7790;53.022;12.968;2023-12-28T04:02:41;0.80;;;0.77;;
15383;SDS011;7790;53.022;12.968;2023-12-28T04:06:42;0.77;;;0.63;;
15383;SDS011;7790;53.022;12.968;2023-12-28T04:10:44;0.80;;;0.80;;
15383;SDS011;7790;53.022;12.968;2023-12-28T04:14:45;1.37;;;0.80;;
15383;SDS011;7790;53.022;12.968;2023-12-28T04:18:46;0.83;;;0.83;;
15383;SDS011;7790;53.022;12.968;2023-12-28T04:22:46;0.63;;;0.60;;
15383;SDS011;7790;53.022;12.968;2023-12-28T04:26:47;0.80;;;0.80;;
15383;SDS011;7790;53.022;12.968;2023-12-28T04:30:48;0.80;;;0.80;;
15383;SDS011;7790;53.022;12.968;2023-12-28T04:34:50;2.87;;;0.80;;
15383;SDS011;7790;53.022;12.968;2023-12-28T04:38:51;1.37;;;0.63;;
15383;SDS011;7790;53.022;12.968;2023-12-28T04:42:52;0.70;;;0.70;;
15383;SDS011;7790;53.022;12.968;2023-12-28T04:46:53;0.80;;;0.80;;
15383;SDS011;7790;53.022;12.968;2023-12-28T04:50:54;0.63;;;0.63;;
15383;SDS011;7790;53.022;12.968;2023-12-28T04:54:55;0.70;;;0.70;;
15383;SDS011;7790;53.022;12.968;2023-12-28T04:58:56;0.67;;;0.67;;
15383;SDS011;7790;53.022;12.968;2023-12-28T05:02:57;0.70;;;0.60;;
15383;SDS011;7790;53.022;12.968;2023-12-28T05:06:57;1.20;;;0.70;;
15383;SDS011;7790;53.022;12.968;2023-12-28T05:10:58;0.83;;;0.83;;
15383;SDS011;7790;53.022;12.968;2023-12-28T05:15:00;0.60;;;0.60;;
15383;SDS011;7790;53.022;12.968;2023-12-28T05:19:00;0.70;;;0.70;;
15383;SDS011;7790;53.022;12.968;2023-12-28T05:23:01;0.77;;;0.77;;
15383;SDS011;7790;53.022;12.968;2023-12-28T05:27:02;0.60;;;0.60;;
15383;SDS011;7790;53.022;12.968;2023-12-28T05:31:04;0.80;;;0.80;;
15383;SDS011;7790;53.022;12.968;2023-12-28T05:35:06;0.60;;;0.53;;
15383;SDS011;7790;53.022;12.968;2023-12-28T05:39:07;0.87;;;0.63;;
15383;SDS011;7790;53.022;12.968;2023-12-28T05:43:13;0.67;;;0.67;;
15383;SDS011;7790;53.022;12.968;2023-12-28T05:47:14;0.57;;;0.43;;
15383;SDS011;7790;53.022;12.968;2023-12-28T05:51:15;0.83;;;0.63;;
15383;SDS011;7790;53.022;12.968;2023-12-28T05:55:15;0.40;;;0.40;;
15383;SDS011;7790;53.022;12.968;2023-12-28T05:59:16;0.80;;;0.77;;
15383;SDS011;7790;53.022;12.968;2023-12-28T06:03:18;0.53;;;0.53;;
15383;SDS011;7790;53.022;12.968;2023-12-28T06:07:18;0.70;;;0.60;;
15383;SDS011;7790;53.022;12.968;2023-12-28T06:11:19;0.50;;;0.50;;
15383;SDS011;7790;53.022;12.968;2023-12-28T06:15:20;0.50;;;0.50;;
15383;SDS011;7790;53.022;12.968;2023-12-28T06:19:21;1.47;;;0.70;;
15383;SDS011;7790;53.022;12.968;2023-12-28T06:23:22;0.50;;;0.50;;
15383;SDS011;7790;53.022;12.968;2023-12-28T06:27:23;0.53;;;0.53;;
15383;SDS011;7790;53.022;12.968;2023-12-28T06:31:24;0.90;;;0.60;;
15383;SDS011;7790;53.022;12.968;2023-12-28T06:35:28;0.40;;;0.40;;
15383;SDS011;7790;53.022;12.968;2023-12-28T06:39:29;0.83;;;0.60;;
15383;SDS011;7790;53.022;12.968;2023-12-28T06:43:30;1.13;;;0.90;;
15383;SDS011;7790;53.022;12.968;2023-12-28T06:47:31;1.13;;;0.90;;
15383;SDS011;7790;53.022;12.968;2023-12-28T06:51:32;1.10;;;0.87;;
15383;SDS011;7790;53.022;12.968;2023-12-28T06:55:33;0.90;;;0.90;;
15383;SDS011;7790;53.022;12.968;2023-12-28T06:59:34;1.97;;;1.10;;
15383;SDS011;7790;53.022;12.968;2023-12-28T07:03:35;1.07;;;1.00;;
15383;SDS011;7790;53.022;12.968;2023-12-28T07:07:36;1.00;;;0.90;;
15383;SDS011;7790;53.022;12.968;2023-12-28T07:11:38;1.20;;;1.10;;
15383;SDS011;7790;53.022;12.968;2023-12-28T07:15:39;1.13;;;1.10;;
15383;SDS011;7790;53.022;12.968;2023-12-28T07:19:40;0.93;;;0.93;;
15383;SDS011;7790;53.022;12.968;2023-12-28T07:23:41;1.10;;;1.00;;
15383;SDS011;7790;53.022;12.968;2023-12-28T07:27:42;1.20;;;1.10;;
15383;SDS011;7790;53.022;12.968;2023-12-28T07:31:43;0.73;;;0.73;;
15383;SDS011;7790;53.022;12.968;2023-12-28T07:35:44;1.00;;;1.00;;
15383;SDS011;7790;53.022;12.968;2023-12-28T07:39:45;1.10;;;1.10;;
15383;SDS011;7790;53.022;12.968;2023-12-28T07:43:46;0.90;;;0.90;;
15383;SDS011;7790;53.022;12.968;2023-12-28T07:47:47;1.10;;;1.10;;
15383;SDS011;7790;53.022;12.968;2023-12-28T07:51:48;0.90;;;0.90;;
15383;SDS011;7790;53.022;12.968;2023-12-28T07:55:49;1.23;;;1.13;;
15383;SDS011;7790;53.022;12.968;2023-12-28T07:59:50;2.37;;;1.27;;
15383;SDS011;7790;53.022;12.968;2023-12-28T08:03:50;1.83;;;1.10;;
15383;SDS011;7790;53.022;12.968;2023-12-28T08:07:51;1.20;;;1.20;;
15383;SDS011;7790;53.022;12.968;2023-12-28T08:11:53;1.30;;;1.10;;
15383;SDS011;7790;53.022;12.968;2023-12-28T08:15:54;2.70;;;1.10;;
15383;SDS011;7790;53.022;12.968;2023-12-28T08:19:54;2.40;;;1.17;;
15383;SDS011;7790;53.022;12.968;2023-12-28T08:23:56;2.57;;;1.00;;
15383;SDS011;7790;53.022;12.968;2023-12-28T08:27:57;2.47;;;1.10;;
15383;SDS011;7790;53.022;12.968;2023-12-28T08:32:00;2.10;;;1.30;;
15383;SDS011;7790;53.022;12.968;2023-12-28T08:36:04;1.40;;;1.30;;
15383;SDS011;7790;53.022;12.968;2023-12-28T08:40:06;2.20;;;1.20;;
15383;SDS011;7790;53.022;12.968;2023-12-28T08:44:07;1.83;;;1.23;;
15383;SDS011;7790;53.022;12.968;2023-12-28T08:48:08;2.13;;;1.10;;
15383;SDS011;7790;53.022;12.968;2023-12-28T08:52:12;0.87;;;0.87;;
15383;SDS011;7790;53.022;12.968;2023-12-28T08:56:16;4.40;;;1.33;;
15383;SDS011;7790;53.022;12.968;2023-12-28T09:00:19;1.40;;;1.20;;
15383;SDS011;7790;53.022;12.968;2023-12-28T09:04:20;2.30;;;1.00;;
15383;SDS011;7790;53.022;12.968;2023-12-28T09:08:21;1.20;;;1.10;;
15383;SDS011;7790;53.022;12.968;2023-12-28T09:12:22;3.80;;;1.23;;
15383;SDS011;7790;53.022;12.968;2023-12-28T09:16:23;1.10;;;0.90;;
15383;SDS011;7790;53.022;12.968;2023-12-28T09:20:24;2.63;;;0.97;;
15383;SDS011;7790;53.022;12.968;2023-12-28T09:24:25;1.20;;;1.10;;
15383;SDS011;7790;53.022;12.968;2023-12-28T09:28:25;1.13;;;0.90;;
15383;SDS011;7790;53.022;12.968;2023-12-28T09:32:26;1.70;;;0.93;;
15383;SDS011;7790;53.022;12.968;2023-12-28T09:36:31;1.30;;;1.20;;
15383;SDS011;7790;53.022;12.968;2023-12-28T09:40:32;1.63;;;1.20;;
15383;SDS011;7790;53.022;12.968;2023-12-28T09:44:33;3.30;;;1.10;;
15383;SDS011;7790;53.022;12.968;2023-12-28T09:48:37;1.83;;;1.00;;
15383;SDS011;7790;53.022;12.968;2023-12-28T09:52:41;1.20;;;0.80;;
15383;SDS011;7790;53.022;12.968;2023-12-28T09:56:42;3.00;;;1.10;;
15383;SDS011;7790;53.022;12.968;2023-12-28T10:00:44;1.23;;;0.90;;
15383;SDS011;7790;53.022;12.968;2023-12-28T10:04:46;1.37;;;1.00;;
15383;SDS011;7790;53.022;12.968;2023-12-28T10:08:47;2.40;;;0.90;;
15383;SDS011;7790;53.022;12.968;2023-12-28T10:12:48;1.57;;;0.90;;
15383;SDS011;7790;53.022;12.968;2023-12-28T10:16:49;1.37;;;0.90;;
15383;SDS011;7790;53.022;12.968;2023-12-28T10:20:50;1.00;;;0.87;;
15383;SDS011;7790;53.022;12.968;2023-12-28T10:24:52;4.27;;;0.90;;
15383;SDS011;7790;53.022;12.968;2023-12-28T10:28:59;3.63;;;0.93;;
15383;SDS011;7790;53.022;12.968;2023-12-28T10:33:01;1.60;;;1.00;;
15383;SDS011;7790;53.022;12.968;2023-12-28T10:37:04;4.07;;;1.00;;
15383;SDS011;7790;53.022;12.968;2023-12-28T10:41:07;2.30;;;0.90;;
15383;SDS011;7790;53.022;12.968;2023-12-28T10:45:10;2.70;;;1.00;;
15383;SDS011;7790;53.022;12.968;2023-12-28T10:49:12;6.10;;;1.03;;
15383;SDS011;7790;53.022;12.968;2023-12-28T10:57:40;3.33;;;2.73;;
15383;SDS011;7790;53.022;12.968;2023-12-28T11:01:51;2.67;;;1.80;;
15383;SDS011;7790;53.022;12.968;2023-12-28T11:05:56;3.13;;;2.30;;
15383;SDS011;7790;53.022;12.968;2023-12-28T11:10:02;10.00;;;2.17;;
15383;SDS011;7790;53.022;12.968;2023-12-28T11:14:05;2.33;;;1.80;;
15383;SDS011;7790;53.022;12.968;2023-12-28T11:18:07;3.07;;;1.87;;
15383;SDS011;7790;53.022;12.968;2023-12-28T11:22:08;2.80;;;1.60;;
15383;SDS011;7790;53.022;12.968;2023-12-28T11:26:16;1.97;;;1.70;;
15383;SDS011;7790;53.022;12.968;2023-12-28T11:30:18;5.87;;;1.80;;
15383;SDS011;7790;53.022;12.968;2023-12-28T11:34:29;3.40;;;1.80;;
15383;SDS011;7790;53.022;12.968;2023-12-28T11:38:31;4.63;;;1.60;;
15383;SDS011;7790;53.022;12.968;2023-12-28T11:42:32;4.90;;;1.60;;
15383;SDS011;7790;53.022;12.968;2023-12-28T11:46:34;2.10;;;1.47;;
15383;SDS011;7790;53.022;12.968;2023-12-28T11:50:36;5.10;;;2.13;;
15383;SDS011;7790;53.022;12.968;2023-12-28T11:54:47;31.30;;;8.20;;
15383;SDS011;7790;53.022;12.968;2023-12-28T11:58:49;20.87;;;7.60;;
15383;SDS011;7790;53.022;12.968;2023-12-28T12:02:50;23.97;;;6.30;;
15383;SDS011;7790;53.022;12.968;2023-12-28T12:06:51;22.87;;;5.70;;
15383;SDS011;7790;53.022;12.968;2023-12-28T12:11:01;17.10;;;5.33;;
15383;SDS011;7790;53.022;12.968;2023-12-28T12:15:04;18.70;;;5.10;;
15383;SDS011;7790;53.022;12.968;2023-12-28T12:19:06;16.63;;;4.73;;
15383;SDS011;7790;53.022;12.968;2023-12-28T12:23:08;10.93;;;4.43;;
15383;SDS011;7790;53.022;12.968;2023-12-28T12:27:09;10.83;;;4.17;;
15383;SDS011;7790;53.022;12.968;2023-12-28T12:31:09;13.43;;;4.30;;
15383;SDS011;7790;53.022;12.968;2023-12-28T12:35:11;9.17;;;3.20;;
15383;SDS011;7790;53.022;12.968;2023-12-28T12:39:13;9.07;;;3.57;;
15383;SDS011;7790;53.022;12.968;2023-12-28T12:43:14;10.50;;;3.60;;
15383;SDS011;7790;53.022;12.968;2023-12-28T12:47:14;12.77;;;3.53;;
15383;SDS011;7790;53.022;12.968;2023-12-28T12:51:15;12.97;;;3.43;;
15383;SDS011;7790;53.022;12.968;2023-12-28T12:55:18;16.83;;;3.40;;
15383;SDS011;7790;53.022;12.968;2023-12-28T12:59:19;8.13;;;3.03;;
15383;SDS011;7790;53.022;12.968;2023-12-28T13:03:20;18.87;;;5.43;;
15383;SDS011;7790;53.022;12.968;2023-12-28T13:07:21;18.17;;;4.40;;
15383;SDS011;7790;53.022;12.968;2023-12-28T13:11:22;16.33;;;4.33;;
15383;SDS011;7790;53.022;12.968;2023-12-28T13:15:26;18.87;;;4.53;;
15383;SDS011;7790;53.022;12.968;2023-12-28T13:19:27;15.93;;;3.93;;
15383;SDS011;7790;53.022;12.968;2023-12-28T13:23:28;10.57;;;4.00;;
15383;SDS011;7790;53.022;12.968;2023-12-28T13:27:29;9.53;;;3.63;;
15383;SDS011;7790;53.022;12.968;2023-12-28T13:31:31;13.13;;;3.30;;
15383;SDS011;7790;53.022;12.968;2023-12-28T13:35:32;13.60;;;2.93;;
15383;SDS011;7790;53.022;12.968;2023-12-28T13:39:36;7.77;;;2.93;;
15383;SDS011;7790;53.022;12.968;2023-12-28T13:43:38;12.43;;;3.10;;
15383;SDS011;7790;53.022;12.968;2023-12-28T13:47:39;9.27;;;2.63;;
15383;SDS011;7790;53.022;12.968;2023-12-28T13:51:40;12.27;;;2.90;;
15383;SDS011;7790;53.022;12.968;2023-12-28T13:55:41;10.13;;;3.00;;
15383;SDS011;7790;53.022;12.968;2023-12-28T13:59:42;8.10;;;3.00;;
15383;SDS011;7790;53.022;12.968;2023-12-28T14:03:42;5.73;;;2.40;;
15383;SDS011;7790;53.022;12.968;2023-12-28T14:07:45;9.30;;;2.60;;
15383;SDS011;7790;53.022;12.968;2023-12-28T14:11:46;8.47;;;2.40;;
15383;SDS011;7790;53.022;12.968;2023-12-28T14:15:48;7.28;;;2.67;;
15383;SDS011;7790;53.022;12.968;2023-12-28T14:19:49;8.27;;;2.50;;
15383;SDS011;7790;53.022;12.968;2023-12-28T14:23:50;5.17;;;2.57;;
15383;SDS011;7790;53.022;12.968;2023-12-28T14:27:52;5.03;;;2.27;;
15383;SDS011;7790;53.022;12.968;2023-12-28T14:31:53;3.97;;;2.37;;
15383;SDS011;7790;53.022;12.968;2023-12-28T14:35:54;8.07;;;2.17;;
15383;SDS011;7790;53.022;12.968;2023-12-28T14:39:55;4.83;;;2.33;;
15383;SDS011;7790;53.022;12.968;2023-12-28T14:43:56;6.37;;;2.20;;
15383;SDS011;7790;53.022;12.968;2023-12-28T14:47:59;6.70;;;2.40;;
15383;SDS011;7790;53.022;12.968;2023-12-28T14:52:00;4.87;;;2.00;;
15383;SDS011;7790;53.022;12.968;2023-12-28T14:56:01;4.43;;;2.17;;
15383;SDS011;7790;53.022;12.968;2023-12-28T15:00:03;3.60;;;1.87;;
15383;SDS011;7790;53.022;12.968;2023-12-28T15:04:05;4.63;;;1.87;;
15383;SDS011;7790;53.022;12.968;2023-12-28T15:08:06;4.10;;;2.30;;
15383;SDS011;7790;53.022;12.968;2023-12-28T15:12:07;5.23;;;2.20;;
15383;SDS011;7790;53.022;12.968;2023-12-28T15:16:08;4.10;;;2.00;;
15383;SDS011;7790;53.022;12.968;2023-12-28T15:20:12;4.67;;;2.10;;
15383;SDS011;7790;53.022;12.968;2023-12-28T15:24:13;3.57;;;1.60;;
15383;SDS011;7790;53.022;12.968;2023-12-28T15:28:14;5.93;;;1.93;;
15383;SDS011;7790;53.022;12.968;2023-12-28T15:32:15;2.17;;;1.60;;
15383;SDS011;7790;53.022;12.968;2023-12-28T15:36:16;4.90;;;1.93;;
15383;SDS011;7790;53.022;12.968;2023-12-28T15:40:17;3.63;;;1.90;;
15383;SDS011;7790;53.022;12.968;2023-12-28T15:44:17;4.57;;;1.70;;
15383;SDS011;7790;53.022;12.968;2023-12-28T15:48:18;2.50;;;1.63;;
15383;SDS011;7790;53.022;12.968;2023-12-28T15:52:19;3.40;;;1.80;;
15383;SDS011;7790;53.022;12.968;2023-12-28T15:56:20;2.43;;;1.70;;
15383;SDS011;7790;53.022;12.968;2023-12-28T16:00:21;3.17;;;1.80;;
15383;SDS011;7790;53.022;12.968;2023-12-28T16:04:22;2.53;;;1.60;;
15383;SDS011;7790;53.022;12.968;2023-12-28T16:08:24;2.93;;;1.50;;
15383;SDS011;7790;53.022;12.968;2023-12-28T16:12:24;2.53;;;1.40;;
15383;SDS011;7790;53.022;12.968;2023-12-28T16:16:25;3.80;;;1.87;;
15383;SDS011;7790;53.022;12.968;2023-12-28T16:20:26;2.40;;;1.50;;
15383;SDS011;7790;53.022;12.968;2023-12-28T16:24:27;3.00;;;1.70;;
15383;SDS011;7790;53.022;12.968;2023-12-28T16:28:28;2.57;;;1.43;;
15383;SDS011;7790;53.022;12.968;2023-12-28T16:32:29;1.40;;;1.30;;
15383;SDS011;7790;53.022;12.968;2023-12-28T16:36:30;1.37;;;1.27;;
15383;SDS011;7790;53.022;12.968;2023-12-28T16:40:31;1.50;;;1.40;;
15383;SDS011;7790;53.022;12.968;2023-12-28T16:44:32;1.40;;;1.30;;
15383;SDS011;7790;53.022;12.968;2023-12-28T16:48:32;1.67;;;1.40;;
15383;SDS011;7790;53.022;12.968;2023-12-28T16:52:33;4.50;;;1.70;;
15383;SDS011;7790;53.022;12.968;2023-12-28T16:56:34;3.80;;;1.67;;
15383;SDS011;7790;53.022;12.968;2023-12-28T17:00:37;4.27;;;1.80;;
15383;SDS011;7790;53.022;12.968;2023-12-28T17:04:38;2.03;;;1.40;;
15383;SDS011;7790;53.022;12.968;2023-12-28T17:08:40;3.53;;;1.57;;
15383;SDS011;7790;53.022;12.968;2023-12-28T17:12:41;1.50;;;1.40;;
15383;SDS011;7790;53.022;12.968;2023-12-28T17:16:42;2.30;;;1.40;;
15383;SDS011;7790;53.022;12.968;2023-12-28T17:20:45;2.80;;;1.33;;
15383;SDS011;7790;53.022;12.968;2023-12-28T17:24:49;2.27;;;1.47;;
15383;SDS011;7790;53.022;12.968;2023-12-28T17:28:59;2.37;;;1.50;;
15383;SDS011;7790;53.022;12.968;2023-12-28T17:33:06;2.93;;;1.60;;
15383;SDS011;7790;53.022;12.968;2023-12-28T17:37:07;2.63;;;1.50;;
15383;SDS011;7790;53.022;12.968;2023-12-28T17:41:09;3.07;;;1.80;;
15383;SDS011;7790;53.022;12.968;2023-12-28T17:45:13;2.77;;;1.77;;
15383;SDS011;7790;53.022;12.968;2023-12-28T17:49:28;4.27;;;2.00;;
15383;SDS011;7790;53.022;12.968;2023-12-28T17:53:30;7.93;;;2.10;;
15383;SDS011;7790;53.022;12.968;2023-12-28T17:57:32;2.57;;;2.00;;
15383;SDS011;7790;53.022;12.968;2023-12-28T18:01:33;2.27;;;1.77;;
15383;SDS011;7790;53.022;12.968;2023-12-28T18:05:33;4.73;;;2.00;;
15383;SDS011;7790;53.022;12.968;2023-12-28T18:09:34;3.93;;;1.70;;
15383;SDS011;7790;53.022;12.968;2023-12-28T18:13:40;4.80;;;2.00;;
15383;SDS011;7790;53.022;12.968;2023-12-28T18:17:41;7.57;;;2.00;;
15383;SDS011;7790;53.022;12.968;2023-12-28T18:21:42;2.07;;;1.80;;
15383;SDS011;7790;53.022;12.968;2023-12-28T18:25:43;3.43;;;1.90;;
15383;SDS011;7790;53.022;12.968;2023-12-28T18:29:44;5.00;;;1.87;;
15383;SDS011;7790;53.022;12.968;2023-12-28T18:33:49;2.70;;;1.40;;
15383;SDS011;7790;53.022;12.968;2023-12-28T18:37:50;3.57;;;1.60;;
15383;SDS011;7790;53.022;12.968;2023-12-28T18:41:51;1.80;;;1.50;;
15383;SDS011;7790;53.022;12.968;2023-12-28T18:45:53;3.47;;;1.70;;
15383;SDS011;7790;53.022;12.968;2023-12-28T18:49:54;2.93;;;1.63;;
15383;SDS011;7790;53.022;12.968;2023-12-28T18:53:55;2.67;;;1.50;;
15383;SDS011;7790;53.022;12.968;2023-12-28T18:57:56;1.73;;;1.40;;
15383;SDS011;7790;53.022;12.968;2023-12-28T19:01:57;2.93;;;1.40;;
15383;SDS011;7790;53.022;12.968;2023-12-28T19:05:58;2.03;;;1.50;;
15383;SDS011;7790;53.022;12.968;2023-12-28T19:10:01;3.80;;;1.60;;
15383;SDS011;7790;53.022;12.968;2023-12-28T19:14:02;2.20;;;1.40;;
15383;SDS011;7790;53.022;12.968;2023-12-28T19:18:03;1.50;;;1.23;;
15383;SDS011;7790;53.022;12.968;2023-12-28T19:22:04;1.60;;;1.30;;
15383;SDS011;7790;53.022;12.968;2023-12-28T19:26:05;3.90;;;1.30;;
15383;SDS011;7790;53.022;12.968;2023-12-28T19:30:06;1.33;;;1.20;;
15383;SDS011;7790;53.022;12.968;2023-12-28T19:34:07;1.53;;;1.20;;
15383;SDS011;7790;53.022;12.968;2023-12-28T19:38:08;2.80;;;1.37;;
15383;SDS011;7790;53.022;12.968;2023-12-28T19:42:08;4.13;;;1.43;;
15383;SDS011;7790;53.022;12.968;2023-12-28T19:46:12;2.43;;;1.07;;
15383;SDS011;7790;53.022;12.968;2023-12-28T19:50:13;3.73;;;1.20;;
15383;SDS011;7790;53.022;12.968;2023-12-28T19:54:14;4.03;;;1.23;;
15383;SDS011;7790;53.022;12.968;2023-12-28T19:58:16;3.73;;;1.40;;
15383;SDS011;7790;53.022;12.968;2023-12-28T20:02:17;3.33;;;1.53;;
15383;SDS011;7790;53.022;12.968;2023-12-28T20:06:19;2.40;;;1.30;;
15383;SDS011;7790;53.022;12.968;2023-12-28T20:10:20;2.63;;;1.30;;
15383;SDS011;7790;53.022;12.968;2023-12-28T20:14:21;3.37;;;1.20;;
15383;SDS011;7790;53.022;12.968;2023-12-28T20:18:22;2.97;;;1.43;;
15383;SDS011;7790;53.022;12.968;2023-12-28T20:22:23;3.80;;;1.10;;
15383;SDS011;7790;53.022;12.968;2023-12-28T20:26:24;2.33;;;1.30;;
15383;SDS011;7790;53.022;12.968;2023-12-28T20:30:25;2.03;;;1.30;;
15383;SDS011;7790;53.022;12.968;2023-12-28T20:34:28;2.17;;;1.30;;
15383;SDS011;7790;53.022;12.968;2023-12-28T20:38:29;3.60;;;1.27;;
15383;SDS011;7790;53.022;12.968;2023-12-28T20:42:30;2.90;;;1.07;;
15383;SDS011;7790;53.022;12.968;2023-12-28T20:46:30;1.17;;;1.07;;
15383;SDS011;7790;53.022;12.968;2023-12-28T20:50:31;2.30;;;1.10;;
15383;SDS011;7790;53.022;12.968;2023-12-28T20:54:33;3.40;;;1.10;;
15383;SDS011;7790;53.022;12.968;2023-12-28T20:58:34;1.70;;;1.20;;
15383;SDS011;7790;53.022;12.968;2023-12-28T21:02:35;1.03;;;0.90;;
15383;SDS011;7790;53.022;12.968;2023-12-28T21:06:35;1.20;;;1.10;;
15383;SDS011;7790;53.022;12.968;2023-12-28T21:10:36;1.50;;;1.00;;
15383;SDS011;7790;53.022;12.968;2023-12-28T21:14:38;2.30;;;1.10;;
15383;SDS011;7790;53.022;12.968;2023-12-28T21:18:42;1.90;;;0.93;;
15383;SDS011;7790;53.022;12.968;2023-12-28T21:22:43;1.10;;;0.80;;
15383;SDS011;7790;53.022;12.968;2023-12-28T21:26:43;1.53;;;1.00;;
15383;SDS011;7790;53.022;12.968;2023-12-28T21:30:44;3.07;;;1.40;;
15383;SDS011;7790;53.022;12.968;2023-12-28T21:34:45;1.53;;;1.00;;
15383;SDS011;7790;53.022;12.968;2023-12-28T21:38:46;4.73;;;1.10;;
15383;SDS011;7790;53.022;12.968;2023-12-28T21:42:47;3.17;;;1.23;;
15383;SDS011;7790;53.022;12.968;2023-12-28T21:46:48;2.47;;;0.80;;
15383;SDS011;7790;53.022;12.968;2023-12-28T21:50:49;1.83;;;0.90;;
15383;SDS011;7790;53.022;12.968;2023-12-28T21:54:49;1.80;;;1.00;;
15383;SDS011;7790;53.022;12.968;2023-12-28T21:58:50;4.50;;;1.17;;
15383;SDS011;7790;53.022;12.968;2023-12-28T22:02:51;1.00;;;0.90;;
15383;SDS011;7790;53.022;12.968;2023-12-28T22:06:52;1.67;;;0.97;;
15383;SDS011;7790;53.022;12.968;2023-12-28T22:10:53;5.40;;;1.20;;
15383;SDS011;7790;53.022;12.968;2023-12-28T22:14:54;4.80;;;1.27;;
15383;SDS011;7790;53.022;12.968;2023-12-28T22:18:55;6.20;;;1.17;;
15383;SDS011;7790;53.022;12.968;2023-12-28T22:22:56;1.47;;;1.00;;
15383;SDS011;7790;53.022;12.968;2023-12-28T22:26:56;1.40;;;0.97;;
15383;SDS011;7790;53.022;12.968;2023-12-28T22:30:57;1.77;;;1.20;;
15383;SDS011;7790;53.022;12.968;2023-12-28T22:34:58;3.20;;;1.10;;
15383;SDS011;7790;53.022;12.968;2023-12-28T22:38:59;2.40;;;0.80;;
15383;SDS011;7790;53.022;12.968;2023-12-28T22:43:01;5.50;;;1.00;;
15383;SDS011;7790;53.022;12.968;2023-12-28T22:47:01;2.33;;;0.97;;
15383;SDS011;7790;53.022;12.968;2023-12-28T22:51:02;2.47;;;1.00;;
15383;SDS011;7790;53.022;12.968;2023-12-28T22:55:04;4.00;;;1.00;;
15383;SDS011;7790;53.022;12.968;2023-12-28T22:59:05;2.13;;;0.90;;
15383;SDS011;7790;53.022;12.968;2023-12-28T23:03:07;1.67;;;0.83;;
15383;SDS011;7790;53.022;12.968;2023-12-28T23:07:08;0.93;;;0.90;;
15383;SDS011;7790;53.022;12.968;2023-12-28T23:11:09;3.03;;;0.90;;
15383;SDS011;7790;53.022;12.968;2023-12-28T23:15:09;0.67;;;0.63;;
15383;SDS011;7790;53.022;12.968;2023-12-28T23:19:11;2.63;;;0.80;;
15383;SDS011;7790;53.022;12.968;2023-12-28T23:23:12;2.43;;;0.70;;
15383;SDS011;7790;53.022;12.968;2023-12-28T23:27:12;1.83;;;1.00;;
15383;SDS011;7790;53.022;12.968;2023-12-28T23:31:14;1.63;;;0.80;;
15383;SDS011;7790;53.022;12.968;2023-12-28T23:35:18;2.23;;;0.83;;
15383;SDS011;7790;53.022;12.968;2023-12-28T23:39:19;4.17;;;1.13;;
15383;SDS011;7790;53.022;12.968;2023-12-28T23:43:20;8.20;;;1.53;;
15383;SDS011;7790;53.022;12.968;2023-12-28T23:47:21;6.77;;;1.50;;
15383;SDS011;7790;53.022;12.968;2023-12-28T23:51:22;4.60;;;1.17;;
15383;SDS011;7790;53.022;12.968;2023-12-28T23:55:22;2.10;;;0.73;;
15383;SDS011;7790;53.022;12.968;2023-12-28T23:59:23;1.07;;;0.73;;
